Richmond, Illinois
Current Conditions -  °F | °C
As of 7:15 PM on Thursday 27 Nov 2014 (Local Time) from KBUU Reporting Station
Clear Clear  
Wind Chill: -14°   Ceiling: Unl
Heat Index: -14°   Visibility: 10mi
Dew Point: -16°   Wind: 0mph
Humidity: 89%   Direction: NA
Pressure: 30.39"   Gusts: NA
Location:  42.48°N, 88.31°W
Report Text: KBUU 280115Z AUTO 00000KT 10SM CLR M14/M16 A3039 RMK AO2 T11441159
Loading
Personal Weather Stations






























Interactive Weather Map New forecast layout! Learn more

10-Day Weather Forecast

Advertisements
Track Severe Weather on mobile